createdAt,value
2019-03-10T00:00:34.521Z,6.10
2019-03-10T00:03:03.888Z,6.10
2019-03-10T00:05:34.639Z,6.20
2019-03-10T00:08:04.016Z,6.20
2019-03-10T00:10:33.310Z,6.20
2019-03-10T00:13:02.689Z,6.20
2019-03-10T00:15:31.980Z,6.20
2019-03-10T00:18:01.296Z,6.20
2019-03-10T00:20:30.595Z,6.20
2019-03-10T00:22:59.894Z,6.20
2019-03-10T00:25:29.201Z,6.20
2019-03-10T00:27:58.501Z,6.30
2019-03-10T00:30:27.799Z,6.30
2019-03-10T00:32:57.096Z,6.40
2019-03-10T00:35:26.493Z,6.40
2019-03-10T00:37:55.788Z,6.40
2019-03-10T00:40:51.413Z,6.40
2019-03-10T00:43:48.151Z,6.50
2019-03-10T00:46:40.038Z,6.50
2019-03-10T00:49:24.232Z,6.50
2019-03-10T00:52:12.436Z,6.50
2019-03-10T00:54:41.736Z,6.50
2019-03-10T00:57:11.039Z,6.50
2019-03-10T00:59:40.337Z,6.50
2019-03-10T01:02:09.628Z,6.50
2019-03-10T01:04:38.945Z,6.60
2019-03-10T01:07:08.828Z,6.60
2019-03-10T01:09:38.128Z,6.60
2019-03-10T01:12:07.437Z,6.60
2019-03-10T01:14:36.726Z,6.60
2019-03-10T01:17:07.384Z,6.60
2019-03-10T01:19:37.356Z,6.60
2019-03-10T01:22:06.643Z,6.60
2019-03-10T01:24:36.019Z,6.60
2019-03-10T01:27:05.319Z,6.70
2019-03-10T01:29:34.623Z,6.60
2019-03-10T01:32:22.209Z,6.70
2019-03-10T01:34:58.302Z,6.70
2019-03-10T01:37:27.588Z,6.80
2019-03-10T01:39:56.895Z,6.70
2019-03-10T01:42:26.192Z,6.60
2019-03-10T01:44:55.593Z,6.70
2019-03-10T01:47:24.907Z,6.60
2019-03-10T01:49:54.213Z,6.60
2019-03-10T01:52:23.512Z,6.60
2019-03-10T01:54:52.828Z,6.50
2019-03-10T01:57:22.168Z,6.60
2019-03-10T01:59:51.459Z,6.70
2019-03-10T02:02:25.644Z,6.70
2019-03-10T02:04:51.764Z,6.70
2019-03-10T02:07:22.865Z,6.60
2019-03-10T02:09:52.168Z,6.60
2019-03-10T02:12:23.099Z,6.70
2019-03-10T02:14:52.388Z,6.70
2019-03-10T02:17:21.700Z,6.70
2019-03-10T02:19:50.995Z,6.60
2019-03-10T02:22:20.293Z,6.60
2019-03-10T02:24:49.599Z,6.60
2019-03-10T02:27:18.893Z,6.60
2019-03-10T02:29:49.935Z,6.60
2019-03-10T02:32:19.303Z,6.50
2019-03-10T02:34:48.616Z,6.40
2019-03-10T02:37:17.923Z,6.40
2019-03-10T02:39:47.218Z,6.40
2019-03-10T02:42:16.511Z,6.50
2019-03-10T02:44:45.813Z,6.50
2019-03-10T02:47:15.117Z,6.50
2019-03-10T02:49:44.460Z,6.50
2019-03-10T02:52:13.769Z,6.40
2019-03-10T02:54:43.072Z,6.50
2019-03-10T02:57:12.401Z,6.40
2019-03-10T02:59:41.709Z,6.50
2019-03-10T03:02:11.013Z,6.40
2019-03-10T03:04:40.317Z,6.40
2019-03-10T03:07:09.623Z,6.40
2019-03-10T03:09:40.304Z,6.30
2019-03-10T03:12:09.605Z,6.40
2019-03-10T03:14:38.983Z,6.40
2019-03-10T03:17:08.289Z,6.40
2019-03-10T03:19:37.608Z,6.30
2019-03-10T03:22:07.527Z,6.40
2019-03-10T03:24:36.826Z,6.30
2019-03-10T03:27:06.225Z,6.30
2019-03-10T03:29:35.530Z,6.20
2019-03-10T03:32:04.843Z,6.30
2019-03-10T03:34:34.235Z,6.30
2019-03-10T03:37:03.605Z,6.30
2019-03-10T03:39:33.749Z,6.30
2019-03-10T03:42:03.056Z,6.30
2019-03-10T03:44:32.353Z,6.30
2019-03-10T03:47:01.673Z,6.40
2019-03-10T03:49:30.974Z,6.30
2019-03-10T03:52:00.297Z,6.30
2019-03-10T03:54:30.501Z,6.40
2019-03-10T03:56:59.794Z,6.30
2019-03-10T03:59:29.098Z,6.30
2019-03-10T04:02:00.042Z,6.30
2019-03-10T04:04:29.345Z,6.30
2019-03-10T04:06:58.701Z,6.30
2019-03-10T04:09:28.067Z,6.30
2019-03-10T04:11:58.848Z,6.30
2019-03-10T04:14:28.158Z,6.30
2019-03-10T04:16:57.478Z,6.30
2019-03-10T04:19:26.851Z,6.20
2019-03-10T04:21:56.154Z,6.20
2019-03-10T04:24:25.467Z,6.20
2019-03-10T04:26:54.810Z,6.10
2019-03-10T04:29:24.134Z,6.10
2019-03-10T04:31:53.446Z,6.10
2019-03-10T04:34:22.750Z,6.10
2019-03-10T04:36:52.049Z,6.00
2019-03-10T04:39:21.348Z,6.10
2019-03-10T04:41:50.682Z,6.10
2019-03-10T04:44:19.986Z,6.10
2019-03-10T04:46:49.293Z,6.10
2019-03-10T04:49:18.593Z,6.10
2019-03-10T04:51:47.972Z,6.00
2019-03-10T04:54:19.136Z,6.00
2019-03-10T04:56:50.090Z,5.90
2019-03-10T04:59:19.449Z,5.90
2019-03-10T05:01:48.758Z,5.90
2019-03-10T05:04:18.055Z,5.90
2019-03-10T05:06:47.370Z,5.90
2019-03-10T05:09:16.673Z,6.00
2019-03-10T05:11:45.980Z,5.90
2019-03-10T05:14:16.557Z,5.90
2019-03-10T05:16:45.847Z,5.80
2019-03-10T05:19:15.180Z,5.80
2019-03-10T05:21:44.485Z,5.80
2019-03-10T05:24:13.801Z,5.80
2019-03-10T05:26:43.103Z,5.70
2019-03-10T05:29:12.409Z,5.70
2019-03-10T05:31:42.189Z,5.60
2019-03-10T05:34:11.492Z,5.60
2019-03-10T05:36:40.799Z,5.60
2019-03-10T05:39:10.096Z,5.50
2019-03-10T05:41:39.399Z,5.50
2019-03-10T05:44:09.691Z,5.50
2019-03-10T05:46:38.994Z,5.40
2019-03-10T05:49:08.301Z,5.40
2019-03-10T05:51:37.900Z,5.40
2019-03-10T05:54:07.213Z,5.30
2019-03-10T05:56:36.545Z,5.30
2019-03-10T05:59:05.850Z,5.30
2019-03-10T06:01:35.151Z,5.20
2019-03-10T06:04:05.497Z,5.20
2019-03-10T06:06:34.816Z,5.20
2019-03-10T06:09:06.462Z,5.20
2019-03-10T06:11:35.761Z,5.20
2019-03-10T06:14:05.070Z,5.10
2019-03-10T06:16:35.786Z,5.20
2019-03-10T06:19:05.089Z,5.10
2019-03-10T06:21:34.405Z,5.10
2019-03-10T06:24:03.709Z,5.10
2019-03-10T06:26:33.013Z,5.10
2019-03-10T06:29:02.326Z,5.10
2019-03-10T06:31:31.636Z,5.10
2019-03-10T06:34:00.958Z,5.10
2019-03-10T06:36:30.292Z,5.10
2019-03-10T06:38:59.598Z,5.10
2019-03-10T06:41:28.902Z,5.10
2019-03-10T06:43:58.204Z,5.00
2019-03-10T06:46:28.468Z,5.00
2019-03-10T06:48:57.775Z,5.00
2019-03-10T06:51:27.073Z,5.00
2019-03-10T06:53:56.380Z,5.00
2019-03-10T06:56:25.685Z,5.00
2019-03-10T06:58:55.012Z,5.10
2019-03-10T07:01:24.377Z,5.00
2019-03-10T07:03:53.678Z,5.00
2019-03-10T07:06:22.985Z,5.00
2019-03-10T07:08:52.280Z,5.10
2019-03-10T07:11:21.590Z,5.10
2019-03-10T07:13:50.889Z,5.10
2019-03-10T07:16:20.204Z,5.10
2019-03-10T07:18:50.648Z,5.10
2019-03-10T07:21:19.955Z,5.00
2019-03-10T07:23:49.264Z,5.00
2019-03-10T07:26:18.569Z,5.00
2019-03-10T07:28:49.529Z,5.00
2019-03-10T07:31:24.348Z,5.00
2019-03-10T07:34:11.522Z,5.00
2019-03-10T07:36:48.446Z,5.00
2019-03-10T07:39:20.493Z,5.00
2019-03-10T07:41:57.345Z,4.80
2019-03-10T07:44:28.305Z,4.60
2019-03-10T07:47:15.658Z,4.40
2019-03-10T07:49:58.613Z,4.40
2019-03-10T07:52:45.854Z,4.40
2019-03-10T07:55:46.020Z,4.40
2019-03-10T07:58:33.438Z,4.30
2019-03-10T08:01:07.361Z,4.30
2019-03-10T08:03:41.302Z,4.30
2019-03-10T08:06:24.501Z,4.30
2019-03-10T08:09:01.649Z,4.30
2019-03-10T08:11:38.288Z,4.30
2019-03-10T08:14:09.233Z,4.40
2019-03-10T08:16:58.182Z,4.40
2019-03-10T08:19:30.346Z,4.50
2019-03-10T08:22:17.393Z,4.50
2019-03-10T08:24:51.152Z,4.50
2019-03-10T08:27:37.754Z,4.50
2019-03-10T08:30:13.429Z,4.40
2019-03-10T08:33:00.733Z,4.40
2019-03-10T08:35:48.411Z,4.40
2019-03-10T08:38:19.366Z,4.40
2019-03-10T08:40:53.192Z,4.30
2019-03-10T08:43:25.559Z,4.30
2019-03-10T08:46:14.960Z,4.20
2019-03-10T08:48:49.042Z,4.20
2019-03-10T08:51:26.123Z,4.20
2019-03-10T08:54:03.316Z,4.20
2019-03-10T08:56:40.218Z,4.20
2019-03-10T08:59:15.309Z,4.20
2019-03-10T09:01:46.254Z,4.30
2019-03-10T09:04:17.206Z,4.30
2019-03-10T09:06:51.061Z,4.30
2019-03-10T09:09:24.824Z,4.20
2019-03-10T09:12:14.040Z,4.20
2019-03-10T09:14:54.829Z,4.10
2019-03-10T09:17:28.518Z,4.10
2019-03-10T09:20:03.649Z,4.10
2019-03-10T09:22:34.593Z,4.10
2019-03-10T09:25:15.436Z,4.10
2019-03-10T09:27:55.562Z,4.10
2019-03-10T09:30:27.446Z,4.20
2019-03-10T09:32:58.393Z,4.20
2019-03-10T09:35:35.101Z,4.20
2019-03-10T09:38:08.998Z,4.20
2019-03-10T09:40:51.741Z,4.10
2019-03-10T09:43:33.398Z,4.10
2019-03-10T09:46:05.297Z,4.10
2019-03-10T09:48:36.233Z,4.20
2019-03-10T09:51:19.365Z,4.20
2019-03-10T09:53:56.515Z,4.20
2019-03-10T09:56:30.576Z,4.20
2019-03-10T09:59:01.518Z,4.30
2019-03-10T10:01:51.655Z,4.40
2019-03-10T10:04:38.988Z,4.40
2019-03-10T10:07:12.813Z,4.50
2019-03-10T10:09:43.754Z,4.50
2019-03-10T10:12:31.217Z,4.60
2019-03-10T10:15:07.892Z,4.60
2019-03-10T10:17:39.161Z,4.60
2019-03-10T10:20:26.988Z,4.70
2019-03-10T10:23:14.471Z,4.70
2019-03-10T10:25:48.328Z,4.70
2019-03-10T10:28:31.225Z,4.70
2019-03-10T10:31:18.551Z,4.70
2019-03-10T10:33:50.500Z,4.70
2019-03-10T10:36:27.417Z,4.70
2019-03-10T10:39:01.056Z,4.80
2019-03-10T10:41:33.608Z,4.80
2019-03-10T10:44:10.469Z,5.00
2019-03-10T10:46:41.409Z,5.10
2019-03-10T10:49:16.019Z,5.30
2019-03-10T10:51:52.689Z,5.40
2019-03-10T10:54:23.649Z,5.50
2019-03-10T10:56:58.138Z,5.70
2019-03-10T10:59:45.678Z,6.00
2019-03-10T11:02:19.530Z,6.20
2019-03-10T11:05:00.646Z,6.10
2019-03-10T11:07:34.589Z,6.00
2019-03-10T11:10:08.984Z,6.00
2019-03-10T11:12:45.620Z,6.10
2019-03-10T11:15:16.657Z,6.20
2019-03-10T11:17:50.506Z,6.20
2019-03-10T11:20:34.533Z,6.10
2019-03-10T11:23:08.180Z,6.10
2019-03-10T11:25:41.833Z,6.00
2019-03-10T11:32:18.742Z,5.90
2019-03-10T11:34:55.789Z,6.00
2019-03-10T11:41:20.703Z,6.00
2019-03-10T11:43:54.384Z,6.10
2019-03-10T11:46:25.352Z,6.10
2019-03-10T11:49:05.308Z,6.20
2019-03-10T11:51:52.646Z,6.20
2019-03-10T11:54:23.576Z,6.10
2019-03-10T11:57:03.655Z,6.30
2019-03-10T11:59:37.253Z,6.40
2019-03-10T12:02:16.390Z,6.50
2019-03-10T12:08:46.895Z,6.70
2019-03-10T12:11:16.190Z,7.70
2019-03-10T12:13:45.484Z,8.10
2019-03-10T12:20:14.918Z,8.20
2019-03-10T12:22:45.504Z,8.40
2019-03-10T12:25:14.980Z,9.00
2019-03-10T12:35:34.756Z,11.10
2019-03-10T12:38:03.899Z,11.10
2019-03-10T12:40:33.202Z,10.90
2019-03-10T12:43:02.550Z,10.70
2019-03-10T12:45:31.866Z,10.50
2019-03-10T12:48:01.181Z,10.40
2019-03-10T12:50:30.548Z,10.30
2019-03-10T13:04:05.139Z,10.50
2019-03-10T13:06:34.441Z,10.50
2019-03-10T13:09:05.280Z,10.60
2019-03-10T13:11:35.752Z,10.60
2019-03-10T13:14:05.124Z,10.70
2019-03-10T13:16:34.444Z,10.80
2019-03-10T13:19:03.749Z,10.90
2019-03-10T13:21:33.087Z,10.90
2019-03-10T13:24:05.285Z,10.90
2019-03-10T13:26:34.579Z,11.00
2019-03-10T13:29:03.880Z,11.50
2019-03-10T13:31:33.191Z,11.40
2019-03-10T13:34:02.484Z,11.00
2019-03-10T13:36:44.155Z,10.90
2019-03-10T13:39:14.115Z,10.80
2019-03-10T13:41:45.041Z,10.90
2019-03-10T13:44:14.348Z,11.00
2019-03-10T13:46:44.034Z,10.90
2019-03-10T13:49:14.589Z,10.80
2019-03-10T13:51:43.888Z,10.70
2019-03-10T13:54:13.185Z,11.10
2019-03-10T13:56:43.458Z,11.50
2019-03-10T13:59:12.751Z,11.30
2019-03-10T14:01:42.555Z,11.20
2019-03-10T14:04:11.847Z,11.30
2019-03-10T14:06:41.149Z,10.90
2019-03-10T14:09:10.517Z,10.60
2019-03-10T14:11:39.816Z,10.40
2019-03-10T14:14:09.115Z,10.50
2019-03-10T14:16:38.464Z,10.50
2019-03-10T14:19:08.708Z,10.60
2019-03-10T14:21:38.010Z,10.90
2019-03-10T14:24:08.982Z,11.20
2019-03-10T14:26:38.539Z,11.10
2019-03-10T14:29:07.837Z,11.20
2019-03-10T14:31:37.140Z,10.80
2019-03-10T14:34:06.440Z,10.30
2019-03-10T14:36:36.632Z,9.70
2019-03-10T14:39:07.077Z,9.30
2019-03-10T14:41:37.639Z,9.10
2019-03-10T14:44:06.931Z,8.90
2019-03-10T14:46:36.233Z,9.90
2019-03-10T14:49:05.536Z,10.40
2019-03-10T14:51:34.972Z,11.50
2019-03-10T14:54:05.616Z,11.30
2019-03-10T14:56:34.912Z,11.10
2019-03-10T14:59:04.289Z,11.30
2019-03-10T15:01:33.593Z,11.90
2019-03-10T15:04:02.887Z,12.50
2019-03-10T15:06:32.185Z,12.80
2019-03-10T15:09:01.521Z,12.50
2019-03-10T15:11:33.196Z,11.10
2019-03-10T15:14:02.572Z,10.30
2019-03-10T15:16:31.867Z,10.00
2019-03-10T15:19:02.240Z,9.70
2019-03-10T15:21:31.527Z,9.30
2019-03-10T15:24:00.849Z,9.30
2019-03-10T15:26:31.488Z,10.30
2019-03-10T15:29:00.889Z,11.20
2019-03-10T15:31:30.559Z,10.20
2019-03-10T15:34:00.995Z,9.80
2019-03-10T15:36:30.342Z,9.90
2019-03-10T15:38:59.704Z,9.50
2019-03-10T15:41:29.160Z,9.40
2019-03-10T15:43:58.461Z,9.40
2019-03-10T15:46:27.754Z,9.30
2019-03-10T15:48:57.773Z,9.30
2019-03-10T15:51:27.059Z,9.60
2019-03-10T15:53:56.355Z,9.40
2019-03-10T15:56:25.651Z,9.20
2019-03-10T15:58:54.991Z,9.10
2019-03-10T16:01:24.400Z,9.00
2019-03-10T16:03:53.864Z,8.90
2019-03-10T16:06:24.736Z,8.80
2019-03-10T16:08:54.017Z,8.70
2019-03-10T16:11:23.303Z,8.50
2019-03-10T16:13:52.600Z,8.40
2019-03-10T16:16:21.897Z,8.20
2019-03-10T16:18:51.201Z,8.00
2019-03-10T16:21:20.496Z,8.00
2019-03-10T16:23:49.796Z,8.00
2019-03-10T16:26:20.260Z,8.00
2019-03-10T16:28:51.964Z,7.90
2019-03-10T16:31:21.269Z,7.80
2019-03-10T16:33:50.559Z,7.80
2019-03-10T16:36:20.067Z,7.70
2019-03-10T16:38:49.371Z,7.70
2019-03-10T16:41:19.789Z,7.60
2019-03-10T16:43:49.231Z,7.50
2019-03-10T16:46:18.524Z,7.50
2019-03-10T16:48:47.835Z,7.50
2019-03-10T16:51:17.139Z,7.50
2019-03-10T16:53:47.405Z,7.50
2019-03-10T16:56:16.713Z,7.50
2019-03-10T16:58:46.003Z,7.50
2019-03-10T17:01:17.623Z,7.40
2019-03-10T17:03:46.921Z,7.30
2019-03-10T17:06:16.215Z,7.30
2019-03-10T17:08:45.519Z,7.20
2019-03-10T17:11:14.820Z,7.20
2019-03-10T17:13:44.107Z,7.10
2019-03-10T17:16:13.432Z,7.10
2019-03-10T17:18:42.724Z,7.00
2019-03-10T17:21:12.013Z,7.00
2019-03-10T17:23:42.289Z,6.80
2019-03-10T17:26:11.581Z,6.70
2019-03-10T17:28:40.876Z,6.70
2019-03-10T17:31:11.296Z,6.60
2019-03-10T17:33:40.587Z,6.20
2019-03-10T17:36:09.889Z,5.90
2019-03-10T17:38:39.189Z,5.60
2019-03-10T17:41:08.588Z,5.50
2019-03-10T17:43:37.889Z,5.20
2019-03-10T17:46:07.179Z,5.00
2019-03-10T17:48:36.488Z,4.50
2019-03-10T17:51:05.853Z,4.10
2019-03-10T17:53:35.139Z,3.70
2019-03-10T17:56:04.436Z,3.40
2019-03-10T17:58:34.276Z,3.00
2019-03-10T18:01:03.735Z,2.80
2019-03-10T18:03:33.045Z,2.70
2019-03-10T18:06:02.404Z,2.60
2019-03-10T18:08:31.725Z,2.40
2019-03-10T18:11:01.021Z,2.20
2019-03-10T18:13:31.641Z,2.10
2019-03-10T18:16:01.018Z,2.10
2019-03-10T18:18:30.968Z,2.00
2019-03-10T18:21:00.260Z,2.00
2019-03-10T18:23:29.548Z,1.90
2019-03-10T18:25:58.858Z,1.80
2019-03-10T18:28:28.164Z,1.70
2019-03-10T18:30:57.563Z,1.60
2019-03-10T18:33:28.631Z,1.70
2019-03-10T18:35:58.548Z,1.60
2019-03-10T18:38:27.844Z,1.60
2019-03-10T18:40:57.131Z,1.50
2019-03-10T18:43:26.429Z,1.50
2019-03-10T18:45:55.768Z,1.40
2019-03-10T18:48:25.080Z,1.40
2019-03-10T18:50:54.373Z,1.40
2019-03-10T18:53:23.661Z,1.40
2019-03-10T18:55:53.640Z,1.40
2019-03-10T18:58:22.931Z,1.40
2019-03-10T19:00:52.304Z,1.40
2019-03-10T19:03:21.602Z,1.30
2019-03-10T19:05:50.884Z,1.30
2019-03-10T19:08:20.182Z,1.30
2019-03-10T19:10:49.468Z,1.30
2019-03-10T19:13:19.644Z,1.40
2019-03-10T19:15:48.940Z,1.40
2019-03-10T19:18:18.237Z,1.40
2019-03-10T19:20:47.539Z,1.30
2019-03-10T19:23:16.823Z,1.30
2019-03-10T19:25:46.131Z,1.30
2019-03-10T19:28:15.428Z,1.30
2019-03-10T19:30:46.915Z,1.30
2019-03-10T19:33:16.313Z,1.30
2019-03-10T19:35:58.300Z,1.40
2019-03-10T19:38:27.596Z,1.50
2019-03-10T19:40:56.892Z,1.50
2019-03-10T19:43:26.192Z,1.50
2019-03-10T19:45:55.486Z,1.50
2019-03-10T19:48:25.556Z,1.50
2019-03-10T19:50:55.820Z,1.60
2019-03-10T19:53:25.184Z,1.60
2019-03-10T19:55:54.479Z,1.60
2019-03-10T19:58:23.776Z,1.50
2019-03-10T20:00:53.081Z,1.60
2019-03-10T20:03:22.371Z,1.60
2019-03-10T20:05:51.669Z,1.60
2019-03-10T20:08:20.955Z,1.60
2019-03-10T20:10:50.268Z,1.60
2019-03-10T20:13:19.579Z,1.60
2019-03-10T20:15:48.884Z,1.50
2019-03-10T20:18:18.171Z,1.60
2019-03-10T20:20:47.499Z,1.60
2019-03-10T20:23:16.797Z,1.60
2019-03-10T20:25:46.165Z,1.60
2019-03-10T20:28:15.651Z,1.60
2019-03-10T20:30:44.936Z,1.60
2019-03-10T20:33:14.243Z,1.60
2019-03-10T20:35:43.535Z,1.60
2019-03-10T20:38:13.379Z,1.60
2019-03-10T20:40:42.676Z,1.60
2019-03-10T20:43:11.970Z,1.50
2019-03-10T20:45:41.269Z,1.50
2019-03-10T20:48:11.618Z,1.60
2019-03-10T20:50:40.912Z,1.60
2019-03-10T20:53:10.389Z,1.70
2019-03-10T20:55:40.761Z,1.70
2019-03-10T20:58:10.145Z,1.80
2019-03-10T21:00:39.447Z,1.80
2019-03-10T21:03:08.817Z,1.80
2019-03-10T21:05:38.112Z,1.80
2019-03-10T21:08:07.417Z,1.70
2019-03-10T21:10:36.704Z,1.60
2019-03-10T21:13:06.017Z,1.50
2019-03-10T21:15:35.307Z,1.40
2019-03-10T21:18:04.668Z,1.30
2019-03-10T21:20:33.969Z,1.30
2019-03-10T21:23:03.277Z,1.30
2019-03-10T21:25:34.147Z,1.30
2019-03-10T21:28:03.620Z,1.30
2019-03-10T21:30:34.146Z,1.40
2019-03-10T21:33:03.447Z,1.40
2019-03-10T21:35:33.540Z,1.40
2019-03-10T21:38:03.139Z,1.40
2019-03-10T21:40:34.659Z,1.50
2019-03-10T21:43:04.695Z,1.60
2019-03-10T21:45:34.261Z,1.70
2019-03-10T21:48:03.557Z,1.80
2019-03-10T21:50:32.847Z,1.90
2019-03-10T21:53:03.307Z,1.90
2019-03-10T21:55:32.632Z,1.90
2019-03-10T21:58:01.993Z,2.10
2019-03-10T22:00:31.283Z,2.10
2019-03-10T22:03:00.931Z,2.20
2019-03-10T22:05:30.228Z,2.30
2019-03-10T22:07:59.592Z,2.20
2019-03-10T22:10:28.881Z,2.20
2019-03-10T22:12:58.244Z,2.20
2019-03-10T22:15:27.537Z,2.30
2019-03-10T22:17:56.836Z,2.20
2019-03-10T22:20:27.532Z,2.10
2019-03-10T22:22:56.828Z,2.10
2019-03-10T22:25:26.125Z,2.00
2019-03-10T22:27:55.431Z,2.10
2019-03-10T22:30:24.809Z,2.10
2019-03-10T22:32:54.088Z,2.00
2019-03-10T22:35:23.378Z,2.00
2019-03-10T22:37:52.678Z,2.10
2019-03-10T22:40:22.067Z,2.00
2019-03-10T22:42:53.723Z,2.00
2019-03-10T22:45:23.029Z,2.00
2019-03-10T22:47:52.321Z,2.00
2019-03-10T22:50:21.615Z,2.00
2019-03-10T22:52:50.912Z,2.00
2019-03-10T22:55:20.208Z,2.00
2019-03-10T22:57:50.988Z,2.00
2019-03-10T23:00:47.116Z,2.00
2019-03-10T23:03:16.605Z,2.10
2019-03-10T23:05:45.904Z,2.10
2019-03-10T23:08:15.191Z,2.00
2019-03-10T23:10:44.492Z,2.10
2019-03-10T23:13:13.796Z,2.20
2019-03-10T23:15:44.256Z,2.10
2019-03-10T23:18:13.543Z,2.10
2019-03-10T23:20:42.839Z,2.10
2019-03-10T23:23:12.132Z,2.10
2019-03-10T23:25:41.428Z,2.10
2019-03-10T23:28:10.735Z,2.10
2019-03-10T23:30:40.092Z,2.10
2019-03-10T23:33:09.385Z,2.10
2019-03-10T23:35:39.048Z,2.10
2019-03-10T23:38:08.415Z,2.10
2019-03-10T23:40:37.828Z,2.10
2019-03-10T23:43:07.424Z,2.10
2019-03-10T23:45:36.711Z,2.20
2019-03-10T23:48:06.012Z,2.20
2019-03-10T23:50:35.305Z,2.20
2019-03-10T23:53:05.460Z,2.20
2019-03-10T23:55:35.711Z,2.20
2019-03-10T23:58:05.009Z,2.20
